Time;durP1;ratioP1;P1;durP2;ratioP2;P2;SDS_P1;SDS_P2;PMS_P1;PMS_P2;Temp;Humidity;BMP_temperature;BMP_pressure;BME280_temperature;BME280_humidity;BME280_pressure;Samples;Min_cycle;Max_cycle;Signal;HPM_P1;HPM_P2
2020/12/25 00:01:46;;;;;;;14.63;8.43;;;2.70;99.90;;;;;;4487136;27;656665;-64
2020/12/25 00:04:34;;;;;;;8.90;4.50;;;2.60;99.90;;;;;;4476036;27;656998;-64
2020/12/25 00:07:22;;;;;;;16.83;8.45;;;2.80;99.90;;;;;;4476456;27;655516;-65
2020/12/25 00:10:09;;;;;;;14.20;8.30;;;2.90;99.90;;;;;;4500932;27;657046;-65
2020/12/25 00:12:57;;;;;;;12.57;7.50;;;2.80;99.90;;;;;;4482892;27;657283;-65
2020/12/25 00:15:46;;;;;;;9.70;5.68;;;2.90;99.90;;;;;;4477508;27;657911;-64
2020/12/25 00:18:33;;;;;;;12.68;7.05;;;2.70;99.90;;;;;;4470461;27;655671;-64
2020/12/25 00:21:20;;;;;;;13.13;7.80;;;2.80;99.90;;;;;;4496269;27;657195;-63
2020/12/25 00:24:07;;;;;;;7.05;2.70;;;2.80;99.90;;;;;;4471607;27;656642;-65
2020/12/25 00:26:54;;;;;;;12.93;6.43;;;2.90;99.90;;;;;;4497577;27;657222;-64
2020/12/25 00:29:42;;;;;;;11.80;6.70;;;2.90;99.90;;;;;;4490493;27;656259;-63
2020/12/25 00:32:29;;;;;;;11.98;6.88;;;3.00;99.90;;;;;;4476428;27;657140;-64
2020/12/25 00:35:16;;;;;;;14.47;7.63;;;3.00;99.90;;;;;;4490164;27;656360;-64
2020/12/25 00:38:03;;;;;;;15.65;8.00;;;2.80;99.90;;;;;;4477129;27;656688;-64
2020/12/25 00:40:50;;;;;;;11.48;7.15;;;2.70;99.90;;;;;;4478954;27;658703;-64
2020/12/25 00:43:37;;;;;;;10.70;5.53;;;2.80;99.90;;;;;;4476899;27;656427;-65
2020/12/25 00:46:25;;;;;;;9.73;5.10;;;2.90;99.90;;;;;;4491630;27;656896;-64
2020/12/25 00:49:12;;;;;;;11.40;7.30;;;3.00;99.90;;;;;;4478125;27;655701;-65
2020/12/25 00:51:59;;;;;;;13.60;7.32;;;2.90;99.90;;;;;;4500805;27;656858;-64
2020/12/25 00:54:46;;;;;;;13.57;7.32;;;2.90;99.90;;;;;;4486653;27;656917;-64
2020/12/25 00:57:33;;;;;;;15.13;6.37;;;2.80;99.90;;;;;;4469051;27;656430;-64
2020/12/25 01:00:20;;;;;;;13.83;7.67;;;2.80;99.90;;;;;;4487526;27;658032;-63
2020/12/25 01:03:08;;;;;;;16.87;7.93;;;2.80;99.90;;;;;;4467104;27;656844;-64
2020/12/25 01:05:55;;;;;;;9.07;4.20;;;2.80;99.90;;;;;;4486972;27;656503;-64
2020/12/25 01:08:44;;;;;;;14.37;6.73;;;3.00;99.90;;;;;;4482366;27;655574;-64
2020/12/25 01:11:31;;;;;;;9.47;5.73;;;2.90;99.90;;;;;;4488295;27;656986;-64
2020/12/25 01:14:18;;;;;;;11.13;4.33;;;2.80;99.90;;;;;;4465983;27;655336;-65
2020/12/25 01:17:05;;;;;;;12.35;5.75;;;2.90;99.90;;;;;;4491939;27;658270;-64
2020/12/25 01:19:53;;;;;;;12.65;7.50;;;2.90;99.90;;;;;;4477205;27;656437;-65
2020/12/25 01:22:40;;;;;;;15.20;7.40;;;2.80;99.90;;;;;;4493009;27;658204;-64
2020/12/25 01:25:27;;;;;;;12.97;7.73;;;2.80;99.90;;;;;;4478909;27;656893;-65
2020/12/25 01:28:14;;;;;;;7.53;4.57;;;2.90;99.90;;;;;;4477771;27;656178;-64
2020/12/25 01:31:02;;;;;;;15.52;7.40;;;2.80;99.90;;;;;;4494799;27;655529;-64
2020/12/25 01:33:49;;;;;;;22.43;8.13;;;2.80;99.90;;;;;;4463709;27;657110;-64
2020/12/25 01:36:37;;;;;;;10.63;5.47;;;2.80;99.90;;;;;;4487935;27;657325;-65
2020/12/25 01:39:24;;;;;;;19.27;9.20;;;2.90;99.90;;;;;;4498769;27;656825;-64
2020/12/25 01:42:12;;;;;;;16.60;8.90;;;3.00;99.90;;;;;;4485814;27;656737;-65
2020/12/25 01:44:59;;;;;;;15.67;8.73;;;2.90;99.90;;;;;;4498395;27;656659;-64
2020/12/25 01:47:46;;;;;;;16.60;7.23;;;2.90;99.90;;;;;;4498233;27;657247;-64
2020/12/25 01:50:33;;;;;;;15.90;9.50;;;2.90;99.90;;;;;;4476558;27;656614;-64
2020/12/25 01:53:21;;;;;;;13.43;8.40;;;2.80;99.90;;;;;;4485721;27;657885;-64
2020/12/25 01:56:08;;;;;;;16.53;8.80;;;2.70;99.90;;;;;;4474478;27;657234;-65
2020/12/25 01:58:55;;;;;;;16.60;9.03;;;2.80;99.90;;;;;;4494351;27;657436;-64
2020/12/25 02:01:42;;;;;;;20.73;10.30;;;2.70;99.90;;;;;;4480148;27;656486;-64
2020/12/25 02:04:29;;;;;;;14.17;7.30;;;2.70;99.90;;;;;;4488920;27;658767;-64
2020/12/25 02:07:16;;;;;;;14.90;8.13;;;2.80;99.90;;;;;;4498352;27;656122;-64
2020/12/25 02:10:04;;;;;;;16.93;8.13;;;2.90;99.90;;;;;;4470298;27;656635;-64
2020/12/25 02:12:51;;;;;;;17.40;9.85;;;2.80;99.90;;;;;;4506651;27;657540;-64
2020/12/25 02:15:38;;;;;;;15.73;9.27;;;2.70;99.90;;;;;;4470043;27;657209;-64
2020/12/25 02:18:33;;;;;;;18.40;9.20;;;2.80;99.90;;;;;;4490803;27;657721;-64
2020/12/25 02:21:20;;;;;;;17.97;9.17;;;2.80;99.90;;;;;;4477130;27;657503;-64
2020/12/25 02:24:08;;;;;;;19.57;9.73;;;2.80;99.90;;;;;;4472117;27;656568;-64
2020/12/25 02:26:55;;;;;;;18.70;10.07;;;2.80;99.90;;;;;;4507020;27;657660;-64
2020/12/25 02:29:42;;;;;;;16.53;9.23;;;2.80;99.90;;;;;;4478468;27;657859;-64
2020/12/25 02:32:29;;;;;;;18.77;9.33;;;2.80;99.90;;;;;;4499914;27;658543;-64
2020/12/25 02:35:17;;;;;;;19.77;9.17;;;2.80;99.90;;;;;;4481609;27;657141;-65
2020/12/25 02:38:05;;;;;;;16.83;9.13;;;2.90;99.90;;;;;;4496375;27;656577;-63
2020/12/25 02:40:52;;;;;;;14.40;7.53;;;2.90;99.90;;;;;;4461734;27;656601;-65
2020/12/25 02:43:38;;;;;;;11.83;7.03;;;2.90;99.90;;;;;;4496275;27;657167;-63
2020/12/25 02:46:27;;;;;;;2.37;1.53;;;3.00;99.90;;;;;;4491395;27;656779;-64
2020/12/25 02:49:14;;;;;;;12.23;6.53;;;2.90;99.90;;;;;;4486485;27;656245;-64
2020/12/25 02:52:01;;;;;;;9.47;5.63;;;2.80;99.90;;;;;;4487927;27;657302;-64
2020/12/25 02:54:49;;;;;;;9.32;4.88;;;2.80;99.90;;;;;;4471468;27;655395;-64
2020/12/25 02:57:36;;;;;;;7.60;4.97;;;2.80;99.90;;;;;;4499401;27;656349;-65
2020/12/25 03:00:23;;;;;;;10.25;4.50;;;2.80;99.90;;;;;;4487929;27;655868;-64
2020/12/25 03:03:10;;;;;;;10.60;3.90;;;2.90;99.90;;;;;;4490630;27;658184;-64
2020/12/25 03:05:57;;;;;;;7.77;4.00;;;3.00;99.90;;;;;;4472843;27;657832;-65
2020/12/25 03:08:44;;;;;;;8.67;4.93;;;3.10;99.90;;;;;;4500306;27;655550;-64
2020/12/25 03:11:31;;;;;;;10.77;5.37;;;2.90;99.90;;;;;;4492359;27;655531;-64
2020/12/25 03:14:19;;;;;;;10.00;5.40;;;2.80;99.90;;;;;;4477003;27;658272;-64
2020/12/25 03:17:06;;;;;;;12.93;6.23;;;2.70;99.90;;;;;;4491280;27;657842;-64
2020/12/25 03:19:53;;;;;;;10.17;5.60;;;2.80;99.90;;;;;;4479181;27;656795;-64
2020/12/25 03:22:39;;;;;;;7.00;3.97;;;2.90;99.90;;;;;;4492522;27;657676;-64
2020/12/25 03:25:27;;;;;;;8.83;5.00;;;2.90;99.90;;;;;;4469241;27;656170;-65
2020/12/25 03:28:14;;;;;;;8.80;5.13;;;2.90;99.90;;;;;;4494322;27;655042;-64
2020/12/25 03:31:02;;;;;;;7.87;4.63;;;3.00;99.90;;;;;;4480842;27;655566;-65
2020/12/25 03:33:49;;;;;;;4.97;2.80;;;2.90;99.90;;;;;;4491947;27;655574;-64
2020/12/25 03:36:36;;;;;;;10.70;5.20;;;2.90;99.90;;;;;;4498121;27;656200;-63
2020/12/25 03:39:23;;;;;;;10.37;5.50;;;2.90;99.90;;;;;;4469943;27;656411;-64
2020/12/25 03:42:10;;;;;;;8.70;5.80;;;2.90;99.90;;;;;;4489197;27;657958;-65
2020/12/25 03:44:58;;;;;;;10.40;5.17;;;2.80;99.90;;;;;;4478471;27;655490;-64
2020/12/25 03:47:45;;;;;;;9.53;5.70;;;2.70;99.90;;;;;;4489956;27;657397;-64
2020/12/25 03:50:32;;;;;;;8.50;5.30;;;2.70;99.90;;;;;;4486207;27;655736;-65
2020/12/25 03:53:19;;;;;;;9.63;6.10;;;2.80;99.90;;;;;;4487906;27;655578;-64
2020/12/25 03:56:05;;;;;;;12.37;7.00;;;2.60;99.90;;;;;;4496056;27;655839;-63
2020/12/25 03:58:52;;;;;;;9.93;6.47;;;2.70;99.90;;;;;;4473898;27;656579;-64
2020/12/25 04:01:40;;;;;;;16.50;7.87;;;2.60;99.90;;;;;;4493223;27;656552;-63
2020/12/25 04:04:27;;;;;;;14.13;8.30;;;2.60;99.90;;;;;;4475933;27;657030;-64
2020/12/25 04:07:14;;;;;;;14.53;8.33;;;2.50;99.90;;;;;;4494016;27;657448;-64
2020/12/25 04:10:02;;;;;;;16.00;7.00;;;2.40;99.90;;;;;;4478591;27;656587;-65
2020/12/25 04:12:49;;;;;;;14.23;8.00;;;2.60;99.90;;;;;;4499712;27;656853;-64
2020/12/25 04:15:36;;;;;;;14.95;8.23;;;2.60;99.90;;;;;;4490811;27;657667;-64
2020/12/25 04:18:24;;;;;;;14.02;7.88;;;2.70;99.90;;;;;;4469473;27;656360;-64
2020/12/25 04:21:11;;;;;;;15.63;7.50;;;2.60;99.90;;;;;;4493671;27;656983;-64
2020/12/25 04:23:58;;;;;;;15.90;9.03;;;2.50;99.90;;;;;;4466812;27;658706;-64
2020/12/25 04:26:48;;;;;;;15.00;8.37;;;2.40;99.90;;;;;;4490803;27;657395;-64
2020/12/25 04:29:35;;;;;;;13.43;7.73;;;2.40;99.90;;;;;;4480881;27;656765;-63
2020/12/25 04:32:22;;;;;;;12.27;7.27;;;2.40;99.90;;;;;;4481302;27;656591;-64
2020/12/25 04:35:10;;;;;;;15.33;7.17;;;2.50;99.90;;;;;;4495860;27;656788;-64
2020/12/25 04:37:57;;;;;;;14.80;7.30;;;2.50;99.90;;;;;;4477710;27;656666;-64
2020/12/25 04:40:44;;;;;;;12.73;7.10;;;2.40;99.90;;;;;;4492679;27;657761;-64
2020/12/25 04:43:31;;;;;;;10.73;5.90;;;2.50;99.90;;;;;;4504645;27;656902;-64
2020/12/25 04:46:18;;;;;;;12.03;6.67;;;2.40;99.90;;;;;;4465033;27;656950;-64
2020/12/25 04:49:07;;;;;;;9.57;5.87;;;2.40;99.90;;;;;;4500283;27;657968;-64
2020/12/25 04:51:55;;;;;;;9.20;5.87;;;2.50;99.90;;;;;;4467033;27;656715;-64
2020/12/25 04:54:45;;;;;;;10.33;5.70;;;2.60;99.90;;;;;;4461437;27;655597;-64
2020/12/25 04:57:32;;;;;;;7.03;4.50;;;2.50;99.90;;;;;;4459926;27;656567;-64
2020/12/25 05:00:19;;;;;;;8.80;5.10;;;2.60;99.90;;;;;;4484177;27;656417;-64
2020/12/25 05:03:06;;;;;;;10.07;5.50;;;2.80;99.90;;;;;;4473013;27;655410;-63
2020/12/25 05:05:53;;;;;;;8.83;5.07;;;2.60;99.90;;;;;;4453831;27;657986;-64
2020/12/25 05:08:42;;;;;;;8.47;4.97;;;2.60;99.90;;;;;;4484823;27;655930;-64
2020/12/25 05:11:29;;;;;;;9.75;4.57;;;2.60;99.90;;;;;;4461845;27;656023;-64
2020/12/25 05:14:17;;;;;;;6.75;3.42;;;2.60;99.90;;;;;;4478534;27;656617;-64
2020/12/25 05:17:04;;;;;;;9.97;5.13;;;2.60;99.90;;;;;;4456126;27;656396;-63
2020/12/25 05:19:51;;;;;;;11.40;5.30;;;2.70;99.90;;;;;;4472798;27;655900;-63
2020/12/25 05:22:38;;;;;;;9.27;5.23;;;2.50;99.90;;;;;;4465357;27;656786;-63
2020/12/25 05:25:26;;;;;;;13.07;4.87;;;2.50;99.90;;;;;;4479948;27;656002;-65
2020/12/25 05:28:13;;;;;;;10.60;5.67;;;2.40;99.90;;;;;;4451398;27;657704;-64
2020/12/25 05:31:00;;;;;;;9.17;5.00;;;2.20;99.90;;;;;;4470987;28;657329;-64
2020/12/25 05:33:48;;;;;;;6.67;3.40;;;2.10;99.90;;;;;;4461326;27;655980;-65
2020/12/25 05:36:35;;;;;;;8.93;4.70;;;2.30;99.90;;;;;;4470892;27;657058;-63
2020/12/25 05:39:26;;;;;;;9.43;4.57;;;2.40;99.90;;;;;;4460392;27;655624;-64
2020/12/25 05:42:14;;;;;;;8.40;4.43;;;2.20;99.90;;;;;;4461077;27;656181;-63
2020/12/25 05:45:01;;;;;;;7.73;4.67;;;2.00;99.90;;;;;;4474876;27;655398;-63
2020/12/25 05:48:02;;;;;;;7.93;4.57;;;2.00;99.90;;;;;;4447655;27;655781;-64
2020/12/25 05:50:49;;;;;;;11.50;4.00;;;1.90;99.90;;;;;;4429135;27;657113;-63
2020/12/25 05:53:38;;;;;;;6.83;3.73;;;2.00;99.90;;;;;;4469950;27;657280;-65
2020/12/25 05:56:25;;;;;;;7.78;3.70;;;2.00;99.90;;;;;;4479121;27;656772;-63
2020/12/25 05:59:14;;;;;;;7.23;3.90;;;2.00;99.90;;;;;;4460924;27;656820;-65
2020/12/25 06:02:03;;;;;;;8.32;3.60;;;1.90;99.90;;;;;;4463676;27;656260;-64
2020/12/25 06:04:51;;;;;;;6.30;3.90;;;1.80;99.90;;;;;;4470298;27;656478;-63
2020/12/25 06:07:38;;;;;;;6.63;3.90;;;1.70;99.90;;;;;;4453462;27;656589;-63
2020/12/25 06:10:26;;;;;;;7.37;3.73;;;1.90;99.90;;;;;;4463263;27;656299;-63
2020/12/25 06:13:16;;;;;;;7.97;4.50;;;1.90;99.90;;;;;;4460065;27;655566;-64
2020/12/25 06:16:04;;;;;;;8.50;4.60;;;1.70;99.90;;;;;;4460877;27;657094;-64
2020/12/25 06:18:57;;;;;;;9.60;4.87;;;1.70;99.90;;;;;;4471188;27;656537;-64
2020/12/25 06:21:46;;;;;;;8.17;4.80;;;1.60;99.90;;;;;;4458382;27;655387;-63
2020/12/25 06:24:35;;;;;;;11.77;5.17;;;1.50;99.90;;;;;;4453620;27;655376;-64
2020/12/25 06:27:25;;;;;;;14.03;6.93;;;1.50;99.90;;;;;;4460316;27;656601;-65
2020/12/25 06:30:12;;;;;;;21.53;9.13;;;1.50;99.90;;;;;;4456590;27;656723;-64
2020/12/25 06:33:00;;;;;;;19.00;8.37;;;1.50;99.90;;;;;;4480890;27;658045;-63
2020/12/25 06:35:47;;;;;;;10.23;5.93;;;1.50;99.90;;;;;;4452690;27;656409;-64
2020/12/25 06:38:41;;;;;;;9.67;5.47;;;1.50;99.90;;;;;;4474475;27;657977;-63
2020/12/25 06:41:28;;;;;;;13.10;6.27;;;1.50;99.90;;;;;;4421741;27;656531;-63
2020/12/25 06:44:16;;;;;;;14.47;4.30;;;1.60;99.90;;;;;;4472744;27;657125;-63
2020/12/25 06:47:03;;;;;;;6.23;4.23;;;1.60;99.90;;;;;;4450408;27;657029;-64
2020/12/25 06:49:51;;;;;;;8.63;4.83;;;1.80;99.90;;;;;;4484461;27;656388;-63
2020/12/25 06:52:53;;;;;;;10.70;4.80;;;1.70;99.90;;;;;;4451893;27;656997;-63
2020/12/25 06:55:41;;;;;;;7.93;4.37;;;1.70;99.90;;;;;;4467128;27;657264;-63
2020/12/25 06:58:28;;;;;;;11.60;5.27;;;1.90;99.90;;;;;;4467787;27;655246;-63
2020/12/25 07:01:16;;;;;;;7.43;4.33;;;1.90;99.90;;;;;;4497734;27;658253;-63
2020/12/25 07:04:03;;;;;;;9.50;5.00;;;2.00;99.90;;;;;;4471837;27;655469;-63
2020/12/25 07:06:52;;;;;;;9.90;4.90;;;1.90;99.90;;;;;;4496429;27;657419;-63
2020/12/25 07:09:40;;;;;;;9.63;5.07;;;1.90;99.90;;;;;;4460593;27;656734;-63
2020/12/25 07:12:27;;;;;;;9.73;4.90;;;1.90;99.90;;;;;;4485980;27;655811;-64
2020/12/25 07:15:14;;;;;;;9.80;4.60;;;2.10;99.90;;;;;;4482863;27;656489;-63
2020/12/25 07:18:02;;;;;;;8.80;3.50;;;2.10;99.90;;;;;;4494610;27;655615;-65
2020/12/25 07:20:51;;;;;;;7.32;4.22;;;2.30;99.90;;;;;;4499091;27;656483;-64
2020/12/25 07:23:45;;;;;;;7.10;3.87;;;2.30;99.90;;;;;;4476657;27;656579;-63
2020/12/25 07:26:32;;;;;;;7.70;4.23;;;2.40;99.90;;;;;;4448701;27;657143;-64
2020/12/25 07:29:19;;;;;;;7.83;4.37;;;2.50;99.90;;;;;;4495437;27;656542;-63
2020/12/25 07:32:08;;;;;;;10.30;4.53;;;2.60;99.90;;;;;;4493604;27;655415;-64
2020/12/25 07:34:55;;;;;;;9.47;4.60;;;2.40;99.90;;;;;;4475764;27;658046;-63
2020/12/25 07:37:42;;;;;;;8.60;4.30;;;2.30;99.90;;;;;;4487834;27;655379;-64
2020/12/25 07:40:30;;;;;;;8.00;4.43;;;2.30;99.90;;;;;;4502441;27;655866;-63
2020/12/25 07:43:17;;;;;;;8.13;4.60;;;2.30;99.90;;;;;;4469877;27;655761;-64
2020/12/25 07:46:04;;;;;;;9.43;5.10;;;2.30;99.90;;;;;;4510811;27;656175;-64
2020/12/25 07:48:55;;;;;;;8.93;5.37;;;2.50;99.90;;;;;;4484681;27;655256;-63
2020/12/25 07:51:42;;;;;;;10.10;5.70;;;2.50;99.90;;;;;;4444902;27;655166;-65
2020/12/25 07:54:29;;;;;;;12.37;6.27;;;2.50;99.90;;;;;;4496093;27;658028;-64
2020/12/25 07:57:19;;;;;;;13.90;6.70;;;2.50;99.90;;;;;;4486835;27;656500;-64
2020/12/25 08:00:06;;;;;;;11.97;6.23;;;2.50;99.90;;;;;;4493493;27;657839;-63
2020/12/25 08:02:54;;;;;;;12.70;6.82;;;2.50;99.90;;;;;;4469350;27;656384;-63
2020/12/25 08:05:41;;;;;;;14.93;7.30;;;2.50;99.90;;;;;;4486499;27;657112;-62
2020/12/25 08:08:28;;;;;;;14.70;6.73;;;2.80;99.90;;;;;;4473154;27;656576;-62
2020/12/25 08:11:16;;;;;;;15.00;8.00;;;3.00;99.90;;;;;;4470294;28;657862;-63
2020/12/25 08:14:06;;;;;;;16.57;7.80;;;2.80;99.90;;;;;;4468290;27;656899;-62
2020/12/25 08:16:53;;;;;;;19.30;7.83;;;2.90;99.90;;;;;;4463556;27;656891;-62
2020/12/25 08:19:40;;;;;;;18.27;8.10;;;3.00;99.90;;;;;;4493795;27;657884;-62
2020/12/25 08:22:27;;;;;;;20.13;7.60;;;3.00;99.90;;;;;;4484093;27;656462;-63
2020/12/25 08:25:14;;;;;;;16.10;7.70;;;3.00;99.90;;;;;;4485140;27;657475;-62
2020/12/25 08:28:01;;;;;;;18.07;8.37;;;2.90;99.90;;;;;;4495907;27;656872;-62
2020/12/25 08:30:49;;;;;;;18.87;8.63;;;2.80;99.90;;;;;;4458569;27;657295;-61
2020/12/25 08:33:36;;;;;;;19.37;10.33;;;2.80;99.90;;;;;;4495532;27;656898;-62
2020/12/25 08:36:23;;;;;;;16.53;9.63;;;2.80;99.90;;;;;;4463176;27;657279;-62
2020/12/25 08:39:10;;;;;;;18.57;9.80;;;2.70;99.90;;;;;;4489826;27;656839;-61
2020/12/25 08:41:57;;;;;;;18.73;9.30;;;2.60;99.90;;;;;;4469789;27;657085;-62
2020/12/25 08:44:56;;;;;;;19.13;10.30;;;2.60;99.90;;;;;;4497005;27;657393;-62
2020/12/25 08:47:44;;;;;;;17.43;9.47;;;2.70;99.90;;;;;;4447611;27;658972;-61
2020/12/25 08:50:31;;;;;;;19.87;9.83;;;2.70;99.90;;;;;;4473395;27;657128;-62
2020/12/25 08:53:20;;;;;;;22.33;8.70;;;2.60;99.90;;;;;;4473189;27;658007;-63
2020/12/25 08:56:16;;;;;;;20.13;9.68;;;2.60;99.90;;;;;;4475633;27;656596;-63
2020/12/25 08:59:05;;;;;;;21.67;9.93;;;2.60;99.90;;;;;;4442751;27;656689;-61
2020/12/25 09:01:52;;;;;;;20.20;9.90;;;2.70;99.90;;;;;;4471016;27;656721;-64
2020/12/25 09:04:40;;;;;;;22.27;10.48;;;2.70;99.90;;;;;;4459540;27;656726;-62
2020/12/25 09:07:27;;;;;;;21.83;10.80;;;2.80;99.90;;;;;;4474934;27;657537;-63
2020/12/25 09:10:14;;;;;;;19.43;9.50;;;2.80;99.90;;;;;;4495509;27;657182;-64
2020/12/25 09:13:01;;;;;;;20.70;9.57;;;3.10;99.90;;;;;;4480053;27;656745;-62
2020/12/25 09:15:48;;;;;;;18.57;10.10;;;3.10;99.90;;;;;;4473056;27;656916;-63
2020/12/25 09:18:35;;;;;;;23.90;9.83;;;3.20;99.90;;;;;;4493658;27;658771;-63
2020/12/25 09:21:24;;;;;;;18.20;9.13;;;3.20;99.90;;;;;;4471568;27;656205;-64
2020/12/25 09:24:12;;;;;;;19.97;9.97;;;3.20;99.90;;;;;;4475158;27;656744;-64
2020/12/25 09:26:59;;;;;;;21.27;10.20;;;3.30;99.90;;;;;;4481676;27;656035;-62
2020/12/25 09:29:46;;;;;;;21.83;8.40;;;3.20;99.90;;;;;;4486472;27;657514;-63
2020/12/25 09:32:33;;;;;;;17.60;9.90;;;3.00;99.90;;;;;;4469318;27;657057;-63
2020/12/25 09:35:19;;;;;;;23.70;11.10;;;2.90;99.90;;;;;;4486910;27;658065;-62
2020/12/25 09:38:08;;;;;;;21.92;10.35;;;2.90;99.90;;;;;;4469975;27;657871;-64
2020/12/25 09:40:55;;;;;;;18.70;10.20;;;2.90;99.90;;;;;;4486577;27;658928;-63
2020/12/25 09:43:42;;;;;;;22.27;11.17;;;2.90;99.90;;;;;;4462299;27;658644;-64
2020/12/25 09:46:29;;;;;;;21.30;11.48;;;3.00;99.90;;;;;;4487284;27;658855;-63
2020/12/25 09:49:16;;;;;;;16.80;8.52;;;3.00;99.90;;;;;;4483015;27;657697;-63
2020/12/25 09:52:04;;;;;;;22.03;11.23;;;3.00;99.90;;;;;;4466204;27;656356;-62
2020/12/25 09:54:52;;;;;;;24.27;11.13;;;3.00;99.90;;;;;;4501499;27;657503;-63
2020/12/25 09:57:39;;;;;;;25.67;11.60;;;3.10;99.90;;;;;;4469613;27;658045;-63
2020/12/25 10:00:26;;;;;;;21.17;10.10;;;3.20;99.90;;;;;;4485838;27;657178;-62
2020/12/25 10:03:13;;;;;;;17.80;9.70;;;3.10;99.90;;;;;;4469245;27;657887;-63
2020/12/25 10:06:00;;;;;;;19.00;9.20;;;3.20;99.90;;;;;;4499181;27;657209;-62
2020/12/25 10:08:47;;;;;;;17.77;9.67;;;3.20;99.90;;;;;;4468074;27;656854;-65
2020/12/25 10:11:35;;;;;;;16.50;9.10;;;3.10;99.90;;;;;;4503590;27;657071;-63
2020/12/25 10:14:22;;;;;;;10.93;4.67;;;3.20;99.90;;;;;;4478692;27;656440;-64
2020/12/25 10:17:09;;;;;;;18.80;8.97;;;3.40;99.90;;;;;;4510662;27;658660;-63
2020/12/25 10:19:56;;;;;;;17.63;8.80;;;3.30;99.90;;;;;;4507108;27;657565;-63
2020/12/25 10:22:43;;;;;;;18.43;9.17;;;3.30;99.90;;;;;;4460613;27;656770;-62
2020/12/25 10:25:30;;;;;;;20.88;10.10;;;3.40;99.90;;;;;;4494512;27;657896;-64
2020/12/25 10:28:18;;;;;;;21.50;9.95;;;3.50;99.90;;;;;;4483788;27;657652;-64
2020/12/25 10:31:05;;;;;;;18.47;10.00;;;3.50;99.90;;;;;;4490428;27;657402;-63
2020/12/25 10:33:52;;;;;;;22.20;10.47;;;3.50;99.90;;;;;;4471069;27;657917;-64
2020/12/25 10:36:39;;;;;;;21.63;10.93;;;3.40;99.90;;;;;;4488658;27;657308;-63
2020/12/25 10:39:25;;;;;;;23.03;10.47;;;3.40;99.90;;;;;;4471663;28;658394;-63
2020/12/25 10:42:14;;;;;;;19.27;10.03;;;3.40;99.90;;;;;;4448334;28;657840;-64
2020/12/25 10:45:02;;;;;;;19.30;9.67;;;3.50;99.90;;;;;;4470492;28;657905;-62
2020/12/25 10:47:49;;;;;;;15.30;8.17;;;3.50;99.90;;;;;;4448558;28;658367;-63
2020/12/25 10:50:36;;;;;;;22.10;9.43;;;3.30;99.90;;;;;;4471351;28;656937;-63
2020/12/25 10:53:23;;;;;;;18.08;8.90;;;3.30;99.90;;;;;;4452438;28;656404;-63
2020/12/25 10:56:10;;;;;;;22.43;9.97;;;3.30;99.90;;;;;;4471261;28;657847;-63
2020/12/25 10:58:57;;;;;;;21.48;9.95;;;3.20;99.90;;;;;;4452418;28;656276;-63
2020/12/25 11:01:46;;;;;;;22.53;9.40;;;3.10;99.90;;;;;;4475250;28;657129;-63
2020/12/25 11:04:33;;;;;;;22.70;10.57;;;3.10;99.90;;;;;;4448756;28;658504;-62
2020/12/25 11:07:20;;;;;;;19.87;9.40;;;3.10;99.90;;;;;;4467737;28;658290;-62
2020/12/25 11:10:07;;;;;;;20.03;10.60;;;3.10;99.90;;;;;;4451810;28;656610;-63
2020/12/25 11:12:54;;;;;;;21.63;9.80;;;3.00;99.90;;;;;;4474141;28;658791;-62
2020/12/25 11:15:42;;;;;;;19.23;9.70;;;3.00;99.90;;;;;;4464138;28;656698;-64
2020/12/25 11:18:32;;;;;;;19.87;9.43;;;3.10;99.90;;;;;;4471094;28;656093;-62
2020/12/25 11:21:22;;;;;;;17.90;9.80;;;3.20;99.90;;;;;;4448259;28;658349;-63
2020/12/25 11:24:09;;;;;;;19.63;9.10;;;3.40;99.90;;;;;;4448128;28;657697;-63
2020/12/25 11:26:57;;;;;;;16.73;9.40;;;3.40;99.90;;;;;;4470946;28;656463;-64
2020/12/25 11:29:44;;;;;;;21.60;9.80;;;3.60;99.90;;;;;;4474771;28;656343;-63
2020/12/25 11:32:32;;;;;;;19.83;9.70;;;3.70;99.90;;;;;;4453555;28;656469;-64
2020/12/25 11:35:20;;;;;;;20.60;10.17;;;3.60;99.90;;;;;;4474906;28;656615;-62
2020/12/25 11:38:07;;;;;;;20.57;10.37;;;3.50;99.90;;;;;;4450605;28;658562;-64
2020/12/25 11:40:54;;;;;;;18.23;9.13;;;3.60;99.90;;;;;;4473416;28;658583;-63
2020/12/25 11:43:41;;;;;;;15.03;7.23;;;3.60;99.90;;;;;;4470581;28;656588;-62
2020/12/25 11:46:28;;;;;;;15.73;8.43;;;3.90;99.90;;;;;;4452167;28;656522;-63
2020/12/25 11:49:15;;;;;;;16.07;8.70;;;3.80;99.90;;;;;;4471015;28;657051;-63
2020/12/25 11:52:03;;;;;;;17.33;8.93;;;3.60;99.90;;;;;;4451680;28;656671;-63
2020/12/25 11:54:50;;;;;;;21.00;10.20;;;3.60;99.90;;;;;;4470301;28;657962;-63
2020/12/25 11:57:37;;;;;;;18.90;9.60;;;3.60;99.90;;;;;;4450097;28;657656;-63
2020/12/25 12:00:24;;;;;;;18.87;8.80;;;3.60;99.90;;;;;;4470592;28;658271;-62
2020/12/25 12:03:12;;;;;;;17.97;9.33;;;3.80;99.90;;;;;;4464189;28;656505;-64
2020/12/25 12:05:59;;;;;;;18.53;9.40;;;3.70;99.90;;;;;;4474444;28;656177;-62
2020/12/25 12:08:47;;;;;;;21.40;10.27;;;3.60;99.90;;;;;;4469875;28;657072;-63
2020/12/25 12:11:40;;;;;;;19.93;9.90;;;3.50;99.90;;;;;;4445895;28;658642;-62
2020/12/25 12:14:27;;;;;;;20.30;9.53;;;3.40;99.90;;;;;;4434342;28;656445;-63
2020/12/25 12:17:14;;;;;;;18.83;9.27;;;3.40;99.90;;;;;;4474102;28;657592;-62
2020/12/25 12:20:01;;;;;;;21.27;8.67;;;3.30;99.90;;;;;;4470323;28;657009;-62
2020/12/25 12:22:48;;;;;;;17.58;7.63;;;3.20;99.90;;;;;;4451513;28;656802;-62
2020/12/25 12:25:38;;;;;;;16.73;8.47;;;3.10;99.90;;;;;;4469734;28;658150;-62
2020/12/25 12:28:25;;;;;;;19.53;8.40;;;3.10;99.90;;;;;;4447386;28;657623;-62
2020/12/25 12:31:12;;;;;;;18.50;8.93;;;2.90;99.90;;;;;;4451098;28;656391;-62
2020/12/25 12:33:59;;;;;;;16.13;8.20;;;2.90;99.90;;;;;;4469523;28;658064;-62
2020/12/25 12:36:47;;;;;;;18.57;8.40;;;2.80;99.90;;;;;;4469100;28;657190;-64
2020/12/25 12:39:34;;;;;;;13.50;6.50;;;2.90;99.90;;;;;;4474269;28;656788;-62
2020/12/25 12:42:22;;;;;;;14.53;7.63;;;3.00;99.90;;;;;;4469508;28;657187;-62
2020/12/25 12:45:09;;;;;;;15.43;6.60;;;3.20;99.90;;;;;;4446933;28;657211;-62
2020/12/25 12:47:57;;;;;;;11.52;4.50;;;3.10;99.90;;;;;;4455316;28;657341;-64
2020/12/25 12:50:44;;;;;;;8.67;2.80;;;2.90;99.90;;;;;;4473690;28;657071;-63
2020/12/25 12:53:31;;;;;;;7.83;3.63;;;2.90;99.90;;;;;;4470794;28;655870;-62
2020/12/25 12:56:18;;;;;;;8.40;3.67;;;2.70;99.90;;;;;;4451606;28;655563;-62
2020/12/25 12:59:06;;;;;;;9.20;3.63;;;2.60;99.90;;;;;;4471408;28;656995;-63
2020/12/25 13:01:54;;;;;;;8.57;4.07;;;2.70;99.90;;;;;;4451848;28;655317;-63
2020/12/25 13:04:42;;;;;;;8.87;4.07;;;2.60;99.90;;;;;;4466713;28;655358;-64
2020/12/25 13:07:30;;;;;;;6.50;3.63;;;2.40;99.90;;;;;;4470564;28;657253;-63
2020/12/25 13:10:18;;;;;;;7.40;3.50;;;2.30;99.90;;;;;;4450349;28;656033;-64
2020/12/25 13:13:05;;;;;;;7.33;3.47;;;2.40;99.90;;;;;;4471752;28;656949;-63
2020/12/25 13:15:53;;;;;;;10.60;4.10;;;2.20;99.90;;;;;;4453255;28;656015;-64
2020/12/25 13:18:43;;;;;;;17.00;8.50;;;2.10;99.90;;;;;;4469350;28;658424;-63
2020/12/25 13:21:30;;;;;;;12.50;6.03;;;2.30;99.90;;;;;;4445721;28;657564;-62
2020/12/25 13:24:17;;;;;;;14.83;5.80;;;2.20;99.90;;;;;;4449651;28;656650;-63
2020/12/25 13:27:04;;;;;;;10.90;5.57;;;2.30;99.90;;;;;;4468298;28;657203;-63
2020/12/25 13:29:51;;;;;;;10.43;5.30;;;2.20;99.90;;;;;;4468883;28;656456;-63
2020/12/25 13:32:40;;;;;;;15.40;7.20;;;2.20;99.90;;;;;;4445621;28;658096;-63
2020/12/25 13:35:27;;;;;;;16.90;5.97;;;2.40;99.90;;;;;;4449849;28;656521;-63
2020/12/25 13:38:14;;;;;;;11.57;6.03;;;2.50;99.90;;;;;;4475230;28;656561;-63
2020/12/25 13:41:04;;;;;;;15.80;7.70;;;2.50;99.90;;;;;;4472212;28;656791;-63
2020/12/25 13:43:51;;;;;;;17.43;7.23;;;2.60;99.90;;;;;;4449400;28;656684;-63
2020/12/25 13:46:38;;;;;;;15.73;6.97;;;2.60;99.90;;;;;;4451555;28;656827;-63
2020/12/25 13:49:26;;;;;;;18.53;7.93;;;2.70;99.90;;;;;;4475572;28;658186;-63
2020/12/25 13:52:13;;;;;;;16.80;7.13;;;2.80;99.90;;;;;;4453413;28;657331;-63
2020/12/25 13:55:03;;;;;;;17.30;7.80;;;2.80;99.90;;;;;;4471897;28;656867;-63
2020/12/25 13:57:51;;;;;;;18.30;8.17;;;2.80;99.90;;;;;;4449458;28;657423;-63
2020/12/25 14:00:38;;;;;;;9.67;4.33;;;2.70;99.90;;;;;;4449458;28;658814;-62
2020/12/25 14:03:31;;;;;;;21.20;8.57;;;2.80;99.90;;;;;;4473078;28;655753;-63
2020/12/25 14:06:28;;;;;;;17.07;7.70;;;2.80;99.90;;;;;;4430028;28;658490;-63
2020/12/25 14:09:15;;;;;;;16.10;6.63;;;2.60;99.90;;;;;;4449044;28;657502;-63
2020/12/25 14:12:02;;;;;;;17.10;7.80;;;2.60;99.90;;;;;;4453250;28;656927;-64
2020/12/25 14:14:49;;;;;;;18.33;7.97;;;2.40;99.90;;;;;;4472194;28;657961;-63
2020/12/25 14:17:37;;;;;;;16.57;7.97;;;2.30;99.90;;;;;;4468710;28;656401;-65
2020/12/25 14:20:24;;;;;;;19.33;7.93;;;2.30;99.90;;;;;;4472099;28;656299;-63
2020/12/25 14:23:12;;;;;;;20.23;7.77;;;2.20;99.90;;;;;;4472001;28;656779;-63